Time;durP1;ratioP1;P1;durP2;ratioP2;P2;SDS_P1;SDS_P2;PMS_P1;PMS_P2;Temp;Humidity;BMP_temperature;BMP_pressure;BME280_temperature;BME280_humidity;BME280_pressure;Samples;Min_cycle;Max_cycle;Signal;HPM_P1;HPM_P2
2023/02/07 00:01:37;;;;;;;0.70;0.50;;;;;;;;;;4146651;28;20092;-38
2023/02/07 00:03:38;;;;;;;0.55;0.40;;;;;;;;;;4146545;28;20386;-37
2023/02/07 00:05:40;;;;;;;1.55;0.30;;;;;;;;;;4128994;28;20117;-37
2023/02/07 00:07:41;;;;;;;0.20;0.10;;;;;;;;;;4128925;28;20138;-37
2023/02/07 00:09:43;;;;;;;0.30;0.30;;;;;;;;;;4145860;28;20060;-38
2023/02/07 00:11:44;;;;;;;0.57;0.30;;;;;;;;;;4146533;28;20101;-37
2023/02/07 00:13:47;;;;;;;0.70;0.20;;;;;;;;;;4146153;28;20054;-38
2023/02/07 00:15:52;;;;;;;0.75;0.32;;;;;;;;;;4097101;28;20469;-39
2023/02/07 00:17:53;;;;;;;0.30;0.30;;;;;;;;;;4145761;28;20555;-37
2023/02/07 00:19:54;;;;;;;0.75;0.38;;;;;;;;;;4129048;28;20140;-37
2023/02/07 00:21:56;;;;;;;0.40;0.30;;;;;;;;;;4145944;28;20104;-37
2023/02/07 00:23:57;;;;;;;0.77;0.40;;;;;;;;;;4146235;28;20461;-41
2023/02/07 00:25:59;;;;;;;0.30;0.30;;;;;;;;;;4146076;28;20065;-40
2023/02/07 00:28:00;;;;;;;0.88;0.50;;;;;;;;;;4113243;28;20098;-38
2023/02/07 00:30:01;;;;;;;0.40;0.30;;;;;;;;;;4145990;28;20468;-38
2023/02/07 00:32:03;;;;;;;0.30;0.30;;;;;;;;;;4112778;28;20066;-37
2023/02/07 00:34:06;;;;;;;0.30;0.30;;;;;;;;;;4146337;28;20058;-38
2023/02/07 00:36:11;;;;;;;0.70;0.20;;;;;;;;;;4146281;28;20049;-38
2023/02/07 00:38:12;;;;;;;0.52;0.40;;;;;;;;;;4128752;28;20065;-40
2023/02/07 00:40:13;;;;;;;0.40;0.30;;;;;;;;;;4145821;28;20067;-37
2023/02/07 00:42:14;;;;;;;0.45;0.20;;;;;;;;;;4148967;28;20058;-37
2023/02/07 00:44:15;;;;;;;0.60;0.40;;;;;;;;;;4109008;28;20062;-38
2023/02/07 00:46:18;;;;;;;0.77;0.50;;;;;;;;;;4131916;28;20046;-37
2023/02/07 00:48:19;;;;;;;0.35;0.30;;;;;;;;;;4148401;28;20046;-36
2023/02/07 00:50:20;;;;;;;0.47;0.20;;;;;;;;;;4131809;28;20054;-38
2023/02/07 00:52:22;;;;;;;0.85;0.40;;;;;;;;;;4149136;28;20452;-38
2023/02/07 00:54:23;;;;;;;0.80;0.45;;;;;;;;;;4148386;28;20111;-39
2023/02/07 00:56:28;;;;;;;0.25;0.25;;;;;;;;;;4123274;28;20054;-38
2023/02/07 00:58:32;;;;;;;0.40;0.30;;;;;;;;;;4115231;28;20498;-38
2023/02/07 01:00:34;;;;;;;0.77;0.50;;;;;;;;;;4148746;28;20080;-37
2023/02/07 01:02:36;;;;;;;0.63;0.32;;;;;;;;;;4148574;28;20061;-39
2023/02/07 01:04:37;;;;;;;0.90;0.40;;;;;;;;;;4148005;28;20562;-38
2023/02/07 01:06:38;;;;;;;0.45;0.30;;;;;;;;;;4149053;28;20100;-38
2023/02/07 01:08:40;;;;;;;0.50;0.40;;;;;;;;;;4148746;28;20061;-37
2023/02/07 01:10:42;;;;;;;0.43;0.30;;;;;;;;;;4115005;28;20427;-38
2023/02/07 01:12:44;;;;;;;0.30;0.20;;;;;;;;;;4148431;28;20378;-38
2023/02/07 01:14:45;;;;;;;0.73;0.25;;;;;;;;;;4131746;28;20062;-38
2023/02/07 01:16:48;;;;;;;0.45;0.38;;;;;;;;;;4131292;28;20054;-37
2023/02/07 01:18:49;;;;;;;0.77;0.30;;;;;;;;;;4115205;28;20051;-37
2023/02/07 01:20:50;;;;;;;0.82;0.38;;;;;;;;;;4148068;28;20497;-38
2023/02/07 01:22:52;;;;;;;0.30;0.30;;;;;;;;;;4148805;28;20062;-38
2023/02/07 01:24:54;;;;;;;0.20;0.20;;;;;;;;;;4130761;28;20062;-38
2023/02/07 01:26:55;;;;;;;0.40;0.25;;;;;;;;;;4148707;28;20104;-38
2023/02/07 01:28:57;;;;;;;0.60;0.38;;;;;;;;;;4148599;28;20108;-37
2023/02/07 01:30:58;;;;;;;0.20;0.20;;;;;;;;;;4148300;28;20061;-38
2023/02/07 01:32:59;;;;;;;0.77;0.40;;;;;;;;;;4148441;28;20500;-39
2023/02/07 01:35:01;;;;;;;0.55;0.40;;;;;;;;;;4148127;28;20100;-38
2023/02/07 01:37:02;;;;;;;0.43;0.25;;;;;;;;;;4148577;28;20053;-37
2023/02/07 01:39:03;;;;;;;0.68;0.30;;;;;;;;;;4148249;28;20050;-37
2023/02/07 01:41:09;;;;;;;0.40;0.35;;;;;;;;;;4130519;28;20427;-37
2023/02/07 01:43:23;;;;;;;0.38;0.30;;;;;;;;;;4130858;28;20058;-37
2023/02/07 01:45:27;;;;;;;0.63;0.40;;;;;;;;;;4130923;28;20085;-38
2023/02/07 01:47:29;;;;;;;0.45;0.20;;;;;;;;;;4148384;28;20099;-38
2023/02/07 01:49:33;;;;;;;0.35;0.28;;;;;;;;;;4130808;28;20451;-38
2023/02/07 01:51:36;;;;;;;0.68;0.40;;;;;;;;;;4148554;28;20081;-37
2023/02/07 01:53:37;;;;;;;0.25;0.20;;;;;;;;;;4130320;28;20101;-37
2023/02/07 01:55:41;;;;;;;0.40;0.30;;;;;;;;;;4130256;28;20058;-38
2023/02/07 01:57:44;;;;;;;0.60;0.30;;;;;;;;;;4130922;28;20533;-38
2023/02/07 01:59:45;;;;;;;0.35;0.20;;;;;;;;;;4130878;28;20054;-39
2023/02/07 02:01:47;;;;;;;0.50;0.32;;;;;;;;;;4130996;28;20089;-38
2023/02/07 02:03:50;;;;;;;0.47;0.30;;;;;;;;;;4130723;28;20050;-38
2023/02/07 02:05:55;;;;;;;0.65;0.20;;;;;;;;;;4130818;28;20054;-37
2023/02/07 02:07:56;;;;;;;0.50;0.40;;;;;;;;;;4131003;28;20513;-37
2023/02/07 02:09:59;;;;;;;0.63;0.20;;;;;;;;;;4147531;28;20104;-37
2023/02/07 02:12:09;;;;;;;0.40;0.20;;;;;;;;;;4130250;28;20061;-37
2023/02/07 02:14:26;;;;;;;0.50;0.30;;;;;;;;;;4131777;28;20062;-37
2023/02/07 02:16:42;;;;;;;0.47;0.30;;;;;;;;;;4130611;28;20199;-37
2023/02/07 02:18:56;;;;;;;0.45;0.40;;;;;;;;;;4131532;28;20442;-38
2023/02/07 02:21:19;;;;;;;0.60;0.50;;;;;;;;;;4137784;28;20057;-37
2023/02/07 02:23:29;;;;;;;0.65;0.30;;;;;;;;;;4114224;28;20459;-38
2023/02/07 02:25:56;;;;;;;0.85;0.40;;;;;;;;;;4129805;28;20510;-37
2023/02/07 02:28:15;;;;;;;0.38;0.30;;;;;;;;;;4114338;28;20110;-36
2023/02/07 02:30:35;;;;;;;0.40;0.35;;;;;;;;;;4118730;28;20065;-38
2023/02/07 02:32:50;;;;;;;;;;;;;;;;;;4114814;28;20054;-37
2023/02/07 02:35:06;;;;;;;0.32;0.30;;;;;;;;;;4129566;28;20391;-38
2023/02/07 02:37:35;;;;;;;0.22;0.20;;;;;;;;;;4131436;28;20128;-37
2023/02/07 02:39:53;;;;;;;0.40;0.20;;;;;;;;;;4130782;28;20395;-37
2023/02/07 02:42:16;;;;;;;0.47;0.28;;;;;;;;;;4130392;28;20046;-37
2023/02/07 02:44:28;;;;;;;0.60;0.30;;;;;;;;;;4114215;28;20387;-38
2023/02/07 02:46:36;;;;;;;1.30;0.45;;;;;;;;;;4129932;28;20058;-38
2023/02/07 02:48:38;;;;;;;0.47;0.30;;;;;;;;;;4130183;28;20054;-38
2023/02/07 02:50:44;;;;;;;0.57;0.40;;;;;;;;;;4114191;28;20117;-37
2023/02/07 02:52:48;;;;;;;0.22;0.20;;;;;;;;;;4114489;28;20075;-37
2023/02/07 02:54:49;;;;;;;0.28;0.22;;;;;;;;;;4129305;28;20054;-37
2023/02/07 02:57:39;;;;;;;0.30;0.30;;;;;;;;;;4130005;28;20058;-37
2023/02/07 02:59:47;;;;;;;0.50;0.32;;;;;;;;;;4129772;28;20054;-37
2023/02/07 03:02:24;;;;;;;0.65;0.32;;;;;;;;;;4131132;28;20497;-37
2023/02/07 03:04:50;;;;;;;0.80;0.30;;;;;;;;;;4128925;28;20069;-38
2023/02/07 03:07:15;;;;;;;0.40;0.20;;;;;;;;;;4130232;28;20089;-38
2023/02/07 03:09:29;;;;;;;0.73;0.32;;;;;;;;;;4113073;28;20086;-38
2023/02/07 03:11:38;;;;;;;0.20;0.20;;;;;;;;;;4129826;28;20109;-39
2023/02/07 03:14:07;;;;;;;0.50;0.30;;;;;;;;;;4113606;28;20082;-37
2023/02/07 03:16:14;;;;;;;0.28;0.20;;;;;;;;;;4130900;28;20080;-37
2023/02/07 03:18:45;;;;;;;0.40;0.25;;;;;;;;;;4129674;28;20073;-37
2023/02/07 03:20:53;;;;;;;0.38;0.30;;;;;;;;;;4111007;28;20166;-37
2023/02/07 03:22:56;;;;;;;0.55;0.32;;;;;;;;;;4118715;28;20383;-37
2023/02/07 03:24:58;;;;;;;0.45;0.30;;;;;;;;;;4112995;28;20054;-37
2023/02/07 03:27:03;;;;;;;0.30;0.30;;;;;;;;;;4113623;28;20668;-39
2023/02/07 03:29:06;;;;;;;0.80;0.35;;;;;;;;;;4129221;28;20054;-37
2023/02/07 03:31:09;;;;;;;0.40;0.28;;;;;;;;;;4129549;28;20054;-36
2023/02/07 03:33:12;;;;;;;0.77;0.40;;;;;;;;;;4129552;28;20465;-37
2023/02/07 03:35:19;;;;;;;0.40;0.30;;;;;;;;;;4130553;28;20050;-37
2023/02/07 03:37:26;;;;;;;0.25;0.10;;;;;;;;;;4130632;28;20089;-38
2023/02/07 03:39:27;;;;;;;0.47;0.30;;;;;;;;;;4112880;28;20055;-37
2023/02/07 03:41:33;;;;;;;0.57;0.32;;;;;;;;;;4089358;28;20055;-38
2023/02/07 03:43:37;;;;;;;0.40;0.30;;;;;;;;;;4129356;28;20568;-37
2023/02/07 03:45:38;;;;;;;0.63;0.40;;;;;;;;;;4130038;28;20061;-37
2023/02/07 03:47:39;;;;;;;1.45;0.32;;;;;;;;;;4130719;28;20498;-39
2023/02/07 03:49:40;;;;;;;1.15;0.30;;;;;;;;;;4130206;28;20097;-37
2023/02/07 03:51:46;;;;;;;0.65;0.30;;;;;;;;;;4130636;28;20465;-38
2023/02/07 03:53:47;;;;;;;0.90;0.30;;;;;;;;;;4129290;28;20046;-38
2023/02/07 03:55:48;;;;;;;0.57;0.32;;;;;;;;;;4129918;28;20065;-37
2023/02/07 03:57:50;;;;;;;0.40;0.20;;;;;;;;;;4130542;28;20093;-37
2023/02/07 03:59:51;;;;;;;0.55;0.38;;;;;;;;;;4130265;28;20628;-37
2023/02/07 04:01:53;;;;;;;0.65;0.30;;;;;;;;;;4113185;28;20086;-38
2023/02/07 04:03:54;;;;;;;0.20;0.20;;;;;;;;;;4130562;28;20544;-39
2023/02/07 04:05:56;;;;;;;1.00;0.20;;;;;;;;;;4129209;28;20528;-37
2023/02/07 04:07:57;;;;;;;0.35;0.20;;;;;;;;;;4130292;28;20422;-37
2023/02/07 04:09:59;;;;;;;0.80;0.30;;;;;;;;;;4129835;28;20058;-36
2023/02/07 04:12:00;;;;;;;0.32;0.22;;;;;;;;;;4130484;28;20060;-39
2023/02/07 04:14:02;;;;;;;0.22;0.22;;;;;;;;;;4129113;28;20510;-38
2023/02/07 04:16:04;;;;;;;0.32;0.30;;;;;;;;;;4147617;28;20065;-37
2023/02/07 04:18:05;;;;;;;0.70;0.38;;;;;;;;;;4154722;28;20094;-37
2023/02/07 04:20:07;;;;;;;0.75;0.22;;;;;;;;;;4133278;28;20054;-37
2023/02/07 04:22:09;;;;;;;0.50;0.30;;;;;;;;;;4116333;28;20113;-38
2023/02/07 04:24:11;;;;;;;0.25;0.25;;;;;;;;;;4149685;28;20054;-39
2023/02/07 04:26:13;;;;;;;0.57;0.30;;;;;;;;;;4149489;28;20494;-38
2023/02/07 04:28:14;;;;;;;0.32;0.30;;;;;;;;;;4149215;28;20120;-38
2023/02/07 04:30:15;;;;;;;0.57;0.52;;;;;;;;;;4149470;28;20064;-37
2023/02/07 04:32:17;;;;;;;0.80;0.40;;;;;;;;;;4149543;28;20050;-38
2023/02/07 04:34:18;;;;;;;0.40;0.38;;;;;;;;;;4149654;28;20057;-37
2023/02/07 04:36:21;;;;;;;0.47;0.35;;;;;;;;;;4149323;28;20057;-43
2023/02/07 04:38:23;;;;;;;0.77;0.30;;;;;;;;;;4132508;28;20154;-37
2023/02/07 04:40:24;;;;;;;0.65;0.28;;;;;;;;;;4131435;28;20575;-37
2023/02/07 04:42:25;;;;;;;0.52;0.30;;;;;;;;;;4149422;28;20065;-37
2023/02/07 04:44:27;;;;;;;0.30;0.22;;;;;;;;;;4149239;28;20460;-37
2023/02/07 04:46:28;;;;;;;0.30;0.30;;;;;;;;;;4149040;28;20100;-37
2023/02/07 04:48:30;;;;;;;0.30;0.30;;;;;;;;;;4132004;28;20050;-37
2023/02/07 04:50:31;;;;;;;0.38;0.30;;;;;;;;;;4124209;28;20062;-39
2023/02/07 04:52:33;;;;;;;2.45;0.30;;;;;;;;;;4149329;28;20050;-37
2023/02/07 04:54:34;;;;;;;0.90;0.30;;;;;;;;;;4148426;28;20061;-37
2023/02/07 04:56:36;;;;;;;0.35;0.35;;;;;;;;;;4149448;28;20062;-37
2023/02/07 04:58:37;;;;;;;1.52;0.40;;;;;;;;;;4149367;28;20081;-37
2023/02/07 05:00:39;;;;;;;0.30;0.30;;;;;;;;;;4131692;28;20050;-38
2023/02/07 05:02:40;;;;;;;0.43;0.30;;;;;;;;;;4131508;28;20113;-37
2023/02/07 05:04:41;;;;;;;0.38;0.30;;;;;;;;;;4148339;28;20060;-38
2023/02/07 05:06:43;;;;;;;0.20;0.15;;;;;;;;;;4149065;28;20061;-38
2023/02/07 05:08:45;;;;;;;1.55;0.30;;;;;;;;;;4148969;28;20112;-37
2023/02/07 05:10:46;;;;;;;0.20;0.20;;;;;;;;;;4148527;28;20567;-37
2023/02/07 05:12:48;;;;;;;0.22;0.22;;;;;;;;;;4148597;28;20089;-37
2023/02/07 05:14:49;;;;;;;0.45;0.30;;;;;;;;;;4131485;28;20541;-38
2023/02/07 05:16:51;;;;;;;0.85;0.30;;;;;;;;;;4132665;28;20065;-39
2023/02/07 05:18:54;;;;;;;0.38;0.28;;;;;;;;;;4135881;28;20042;-38
2023/02/07 05:20:55;;;;;;;0.38;0.38;;;;;;;;;;4148675;28;20104;-37
2023/02/07 05:22:56;;;;;;;0.88;0.30;;;;;;;;;;4148743;28;20508;-37
2023/02/07 05:24:57;;;;;;;0.65;0.30;;;;;;;;;;4148476;28;20062;-37
2023/02/07 05:26:58;;;;;;;0.28;0.22;;;;;;;;;;4148218;28;20111;-38
2023/02/07 05:28:59;;;;;;;0.50;0.30;;;;;;;;;;4130618;28;20104;-38
2023/02/07 05:31:00;;;;;;;0.60;0.30;;;;;;;;;;4148577;28;20112;-37
2023/02/07 05:33:02;;;;;;;0.38;0.20;;;;;;;;;;4148593;28;20062;-38
2023/02/07 05:35:03;;;;;;;0.30;0.30;;;;;;;;;;4148451;28;20049;-38
2023/02/07 05:37:05;;;;;;;1.17;0.50;;;;;;;;;;4148614;28;20421;-38
2023/02/07 05:39:06;;;;;;;0.40;0.35;;;;;;;;;;4117947;28;20054;-38
2023/02/07 05:41:07;;;;;;;1.10;0.45;;;;;;;;;;4130521;28;20486;-37
2023/02/07 05:43:10;;;;;;;0.95;0.35;;;;;;;;;;4131015;28;20054;-37
2023/02/07 05:45:11;;;;;;;0.77;0.40;;;;;;;;;;4148328;28;20504;-37
2023/02/07 05:47:13;;;;;;;2.35;0.32;;;;;;;;;;4148113;28;20061;-37
2023/02/07 05:49:14;;;;;;;1.35;0.38;;;;;;;;;;4151004;28;20046;-37
2023/02/07 05:51:16;;;;;;;3.72;0.47;;;;;;;;;;4130923;28;20514;-37
2023/02/07 05:53:17;;;;;;;2.05;0.50;;;;;;;;;;4148593;28;20100;-37
2023/02/07 05:55:18;;;;;;;0.40;0.30;;;;;;;;;;4147419;28;20054;-37
2023/02/07 05:57:19;;;;;;;0.85;0.35;;;;;;;;;;4130772;28;20105;-37
2023/02/07 05:59:21;;;;;;;0.98;0.50;;;;;;;;;;4114708;28;20086;-37
2023/02/07 06:01:22;;;;;;;1.08;0.40;;;;;;;;;;4130279;28;20126;-37
2023/02/07 06:03:24;;;;;;;1.35;0.88;;;;;;;;;;4143355;28;20057;-39
2023/02/07 06:05:30;;;;;;;0.63;0.40;;;;;;;;;;4146340;28;20085;-37
2023/02/07 06:07:31;;;;;;;1.17;0.82;;;;;;;;;;4146288;28;20069;-39
2023/02/07 06:09:33;;;;;;;1.55;0.50;;;;;;;;;;4145461;28;20120;-37
2023/02/07 06:11:35;;;;;;;1.27;0.47;;;;;;;;;;4128532;28;20592;-38
2023/02/07 06:13:38;;;;;;;0.80;0.25;;;;;;;;;;4132274;28;20128;-37
2023/02/07 06:15:39;;;;;;;2.28;0.68;;;;;;;;;;4128351;28;20441;-38
2023/02/07 06:17:40;;;;;;;0.50;0.30;;;;;;;;;;4128413;28;20383;-37
2023/02/07 06:19:42;;;;;;;1.45;0.40;;;;;;;;;;4127179;28;20061;-39
2023/02/07 06:21:43;;;;;;;1.40;0.50;;;;;;;;;;4137454;28;20081;-40
2023/02/07 06:23:47;;;;;;;0.68;0.30;;;;;;;;;;4141162;28;20489;-37
2023/02/07 06:25:48;;;;;;;0.88;0.50;;;;;;;;;;4125021;28;20062;-36
2023/02/07 06:27:50;;;;;;;1.77;0.32;;;;;;;;;;4142297;28;20517;-37
2023/02/07 06:29:51;;;;;;;1.50;0.47;;;;;;;;;;4140820;28;20395;-39
2023/02/07 06:31:52;;;;;;;0.88;0.47;;;;;;;;;;4140725;28;20053;-37
2023/02/07 06:33:54;;;;;;;2.58;0.40;;;;;;;;;;4142310;28;20061;-37
2023/02/07 06:35:55;;;;;;;2.00;0.40;;;;;;;;;;4145436;28;20054;-36
2023/02/07 06:37:56;;;;;;;1.98;0.52;;;;;;;;;;4137337;28;20058;-37
2023/02/07 06:39:57;;;;;;;0.57;0.30;;;;;;;;;;4134666;28;20092;-39
2023/02/07 06:41:59;;;;;;;1.95;0.43;;;;;;;;;;4140657;28;20058;-39
2023/02/07 06:44:00;;;;;;;2.17;0.50;;;;;;;;;;4141006;28;20630;-47
2023/02/07 06:46:02;;;;;;;0.80;0.50;;;;;;;;;;4125411;28;20058;-39
2023/02/07 06:48:03;;;;;;;2.70;0.70;;;;;;;;;;4143529;28;20061;-37
2023/02/07 06:50:05;;;;;;;1.30;0.47;;;;;;;;;;4125314;28;20571;-47
2023/02/07 06:52:07;;;;;;;2.47;0.43;;;;;;;;;;4142031;28;20115;-40
2023/02/07 06:54:09;;;;;;;3.33;0.63;;;;;;;;;;4142915;28;20053;-39
2023/02/07 06:56:10;;;;;;;1.27;0.40;;;;;;;;;;4122759;28;20065;-38
2023/02/07 06:58:12;;;;;;;2.15;0.68;;;;;;;;;;4125456;28;20124;-41
2023/02/07 07:00:14;;;;;;;1.67;0.60;;;;;;;;;;4141745;28;20096;-40
2023/02/07 07:02:16;;;;;;;0.43;0.30;;;;;;;;;;4119819;28;20101;-41
2023/02/07 07:04:17;;;;;;;1.05;0.45;;;;;;;;;;4133849;28;20054;-39
2023/02/07 07:06:18;;;;;;;1.85;0.50;;;;;;;;;;4136296;28;20065;-40
2023/02/07 07:08:20;;;;;;;1.92;0.40;;;;;;;;;;4136991;28;20438;-39
2023/02/07 07:10:22;;;;;;;1.65;0.63;;;;;;;;;;4137782;28;20412;-40
2023/02/07 07:12:24;;;;;;;0.90;0.50;;;;;;;;;;4132515;28;20062;-42
2023/02/07 07:14:26;;;;;;;0.90;0.47;;;;;;;;;;4136713;28;20565;-38
2023/02/07 07:16:27;;;;;;;1.85;0.50;;;;;;;;;;4140207;28;20212;-39
2023/02/07 07:18:28;;;;;;;1.17;0.50;;;;;;;;;;4139522;28;20049;-40
2023/02/07 07:20:30;;;;;;;2.10;0.70;;;;;;;;;;4118474;28;20510;-38
2023/02/07 07:22:31;;;;;;;1.60;0.60;;;;;;;;;;4139279;28;20108;-38
2023/02/07 07:24:33;;;;;;;1.90;0.60;;;;;;;;;;4132280;28;20053;-40
2023/02/07 07:26:35;;;;;;;1.20;0.60;;;;;;;;;;4117829;28;20567;-41
2023/02/07 07:28:36;;;;;;;1.42;0.55;;;;;;;;;;4128478;28;20210;-39
2023/02/07 07:30:38;;;;;;;2.47;0.60;;;;;;;;;;4136784;28;20057;-41
2023/02/07 07:32:40;;;;;;;3.10;0.52;;;;;;;;;;4121180;28;20064;-39
2023/02/07 07:34:41;;;;;;;1.27;0.52;;;;;;;;;;4110957;28;20417;-38
2023/02/07 07:36:42;;;;;;;1.30;0.45;;;;;;;;;;4131648;28;20062;-37
2023/02/07 07:38:44;;;;;;;1.75;0.60;;;;;;;;;;4130771;28;20054;-39
2023/02/07 07:40:45;;;;;;;1.67;0.60;;;;;;;;;;4124617;28;20154;-37
2023/02/07 07:42:46;;;;;;;2.20;0.82;;;;;;;;;;4124578;28;20498;-38
2023/02/07 07:44:55;;;;;;;3.90;0.60;;;;;;;;;;4106264;28;20412;-40
2023/02/07 07:46:56;;;;;;;0.68;0.40;;;;;;;;;;4120831;28;20804;-40
2023/02/07 07:48:58;;;;;;;3.25;0.65;;;;;;;;;;4121501;28;20127;-39
2023/02/07 07:50:59;;;;;;;1.63;0.68;;;;;;;;;;4115706;28;20116;-41
2023/02/07 07:53:00;;;;;;;1.40;0.55;;;;;;;;;;4102924;28;20148;-40
2023/02/07 07:55:02;;;;;;;1.23;0.60;;;;;;;;;;4121704;28;20062;-38
2023/02/07 07:57:04;;;;;;;1.77;0.40;;;;;;;;;;4110104;28;20057;-40
2023/02/07 07:59:06;;;;;;;2.95;0.60;;;;;;;;;;4106527;28;20050;-39
2023/02/07 08:01:07;;;;;;;1.80;0.63;;;;;;;;;;4110322;28;20053;-41
2023/02/07 08:03:09;;;;;;;3.45;0.50;;;;;;;;;;4110033;28;20070;-39
2023/02/07 08:05:11;;;;;;;2.60;0.47;;;;;;;;;;4098283;28;20070;-39
2023/02/07 08:07:12;;;;;;;1.63;0.50;;;;;;;;;;4107880;28;20713;-41
2023/02/07 08:09:13;;;;;;;5.65;0.50;;;;;;;;;;4115093;28;20530;-42
2023/02/07 08:11:15;;;;;;;2.88;0.43;;;;;;;;;;4088549;28;20584;-39
2023/02/07 08:13:16;;;;;;;2.88;0.63;;;;;;;;;;4120191;28;20442;-39
2023/02/07 08:15:18;;;;;;;1.98;0.60;;;;;;;;;;4112367;28;20058;-44
2023/02/07 08:17:19;;;;;;;0.63;0.55;;;;;;;;;;4123136;28;20883;-44
2023/02/07 08:19:21;;;;;;;3.22;0.60;;;;;;;;;;4116720;28;20057;-42
2023/02/07 08:21:25;;;;;;;2.35;0.30;;;;;;;;;;4121271;28;20089;-42
2023/02/07 08:23:27;;;;;;;0.60;0.35;;;;;;;;;;4119627;28;20525;-44
2023/02/07 08:25:28;;;;;;;1.45;0.32;;;;;;;;;;4114686;28;20057;-45
2023/02/07 08:27:30;;;;;;;0.98;0.50;;;;;;;;;;4119141;28;20062;-43
2023/02/07 08:29:31;;;;;;;1.73;0.57;;;;;;;;;;4113808;28;20057;-46
2023/02/07 08:31:33;;;;;;;1.83;0.45;;;;;;;;;;4116822;28;20089;-45
2023/02/07 08:33:34;;;;;;;1.23;0.40;;;;;;;;;;4114973;28;20065;-47
2023/02/07 08:35:36;;;;;;;2.03;0.50;;;;;;;;;;4117248;28;21925;-42
2023/02/07 08:37:38;;;;;;;1.10;0.40;;;;;;;;;;4117578;28;20062;-42
2023/02/07 08:39:39;;;;;;;0.60;0.28;;;;;;;;;;4113760;28;20046;-41
2023/02/07 08:41:40;;;;;;;2.67;0.45;;;;;;;;;;4120478;28;20062;-42
2023/02/07 08:43:42;;;;;;;1.10;0.45;;;;;;;;;;4119927;28;20398;-42
2023/02/07 08:45:47;;;;;;;1.60;0.40;;;;;;;;;;4094218;28;20080;-38
2023/02/07 08:47:48;;;;;;;5.40;0.98;;;;;;;;;;4117241;28;20160;-47
2023/02/07 08:49:50;;;;;;;4.10;0.70;;;;;;;;;;4120831;28;20062;-46
2023/02/07 08:51:52;;;;;;;3.42;0.40;;;;;;;;;;4115073;28;20068;-43
2023/02/07 08:53:53;;;;;;;0.98;0.57;;;;;;;;;;4097247;28;21622;-44
2023/02/07 08:55:54;;;;;;;2.53;0.45;;;;;;;;;;4101931;28;20060;-43
2023/02/07 08:57:56;;;;;;;1.38;0.32;;;;;;;;;;4107755;28;20065;-42
2023/02/07 08:59:57;;;;;;;2.92;0.30;;;;;;;;;;4109777;28;20054;-39
2023/02/07 09:01:58;;;;;;;2.83;0.52;;;;;;;;;;4106467;28;21102;-43
2023/02/07 09:03:59;;;;;;;1.35;0.60;;;;;;;;;;4108554;28;20124;-40
2023/02/07 09:06:01;;;;;;;2.08;0.32;;;;;;;;;;4119812;28;20061;-41
2023/02/07 09:08:02;;;;;;;1.48;0.60;;;;;;;;;;4097785;28;20404;-44
2023/02/07 09:10:05;;;;;;;5.18;0.73;;;;;;;;;;4117135;28;20124;-41
2023/02/07 09:12:07;;;;;;;1.15;0.57;;;;;;;;;;4116796;28;20674;-39
2023/02/07 09:14:08;;;;;;;0.40;0.40;;;;;;;;;;4116714;28;20128;-42
2023/02/07 09:16:13;;;;;;;3.33;0.63;;;;;;;;;;4119698;28;20054;-38
2023/02/07 09:18:15;;;;;;;0.90;0.47;;;;;;;;;;4100711;28;20062;-40
2023/02/07 09:20:17;;;;;;;1.02;0.63;;;;;;;;;;4117089;28;20045;-41
2023/02/07 09:22:18;;;;;;;0.65;0.30;;;;;;;;;;4099189;28;20541;-41
2023/02/07 09:24:20;;;;;;;1.08;0.68;;;;;;;;;;4104652;28;20564;-45
2023/02/07 09:26:23;;;;;;;1.55;0.35;;;;;;;;;;4092703;28;20156;-47
2023/02/07 09:28:24;;;;;;;1.02;0.40;;;;;;;;;;4114250;28;20199;-42
2023/02/07 09:30:26;;;;;;;1.50;0.40;;;;;;;;;;4115012;28;20057;-42
2023/02/07 09:32:28;;;;;;;0.93;0.50;;;;;;;;;;4114889;28;20088;-48
2023/02/07 09:34:32;;;;;;;1.30;0.50;;;;;;;;;;4109326;28;20548;-42
2023/02/07 09:36:33;;;;;;;2.42;0.52;;;;;;;;;;4107846;28;20084;-46
2023/02/07 09:38:35;;;;;;;0.90;0.32;;;;;;;;;;4107823;28;20916;-43
2023/02/07 09:40:36;;;;;;;4.32;0.60;;;;;;;;;;4116064;28;20070;-41
2023/02/07 09:42:50;;;;;;;0.47;0.30;;;;;;;;;;4118743;28;20058;-44
2023/02/07 09:45:00;;;;;;;1.30;0.40;;;;;;;;;;4098601;28;21053;-46
2023/02/07 09:47:05;;;;;;;2.25;0.50;;;;;;;;;;4085718;28;20821;-51
2023/02/07 09:49:21;;;;;;;2.35;0.65;;;;;;;;;;4101897;28;20057;-46
2023/02/07 09:51:24;;;;;;;3.83;0.30;;;;;;;;;;4098294;28;20476;-41
2023/02/07 09:53:30;;;;;;;2.83;0.40;;;;;;;;;;4094692;28;20197;-40
2023/02/07 09:55:46;;;;;;;0.90;0.40;;;;;;;;;;4120085;28;20080;-40
2023/02/07 09:58:15;;;;;;;1.88;0.40;;;;;;;;;;4112661;28;20916;-44
2023/02/07 10:00:18;;;;;;;2.20;0.30;;;;;;;;;;4108446;28;20054;-42
2023/02/07 10:02:43;;;;;;;1.17;0.30;;;;;;;;;;4112702;28;20097;-41
2023/02/07 10:04:47;;;;;;;2.30;0.38;;;;;;;;;;4084320;28;20101;-42
2023/02/07 10:06:55;;;;;;;1.63;0.47;;;;;;;;;;4090419;28;20069;-40
2023/02/07 10:08:59;;;;;;;0.57;0.38;;;;;;;;;;4112741;28;20112;-44
2023/02/07 10:11:26;;;;;;;1.35;0.50;;;;;;;;;;4098107;28;20086;-40
2023/02/07 10:14:01;;;;;;;1.35;0.50;;;;;;;;;;4112967;28;20073;-44
2023/02/07 10:16:28;;;;;;;0.40;0.35;;;;;;;;;;4115586;28;20061;-44
2023/02/07 10:18:38;;;;;;;1.85;0.52;;;;;;;;;;4101850;28;20417;-41
2023/02/07 10:20:44;;;;;;;2.22;0.60;;;;;;;;;;4111478;28;20062;-38
2023/02/07 10:23:13;;;;;;;2.05;0.45;;;;;;;;;;4108579;28;20058;-41
2023/02/07 10:25:26;;;;;;;1.38;0.35;;;;;;;;;;4112637;28;20154;-42
2023/02/07 10:27:46;;;;;;;0.88;0.40;;;;;;;;;;4099684;28;20073;-42
2023/02/07 10:29:55;;;;;;;0.93;0.50;;;;;;;;;;4110975;28;21746;-42
2023/02/07 10:32:02;;;;;;;0.52;0.30;;;;;;;;;;4102825;28;20061;-46
2023/02/07 10:34:13;;;;;;;0.98;0.40;;;;;;;;;;4112459;28;20065;-44
2023/02/07 10:36:15;;;;;;;1.33;0.50;;;;;;;;;;4079492;28;20066;-43
2023/02/07 10:38:27;;;;;;;1.10;0.43;;;;;;;;;;4118780;28;20144;-42
2023/02/07 10:40:40;;;;;;;0.80;0.43;;;;;;;;;;4086570;28;20085;-41
2023/02/07 10:42:44;;;;;;;3.47;0.40;;;;;;;;;;4080334;28;21006;-46
2023/02/07 10:44:46;;;;;;;1.58;0.45;;;;;;;;;;4076853;28;20755;-45
2023/02/07 10:47:01;;;;;;;2.55;0.32;;;;;;;;;;4107012;28;20065;-45
2023/02/07 10:49:04;;;;;;;2.90;0.30;;;;;;;;;;4097483;28;20057;-46
2023/02/07 10:51:28;;;;;;;4.05;0.55;;;;;;;;;;4105289;28;21802;-44
2023/02/07 10:53:48;;;;;;;0.68;0.50;;;;;;;;;;4080599;28;21632;-50
2023/02/07 10:55:50;;;;;;;0.45;0.30;;;;;;;;;;4113927;28;20490;-48
2023/02/07 10:57:53;;;;;;;0.60;0.30;;;;;;;;;;4116490;28;20120;-47
2023/02/07 11:00:20;;;;;;;1.95;0.77;;;;;;;;;;4115259;28;20543;-47
2023/02/07 11:02:28;;;;;;;3.25;0.90;;;;;;;;;;4071506;28;21004;-49
2023/02/07 11:04:38;;;;;;;1.17;0.45;;;;;;;;;;4103530;28;20315;-52
2023/02/07 11:06:39;;;;;;;2.85;0.50;;;;;;;;;;4084153;28;20092;-52
2023/02/07 11:08:41;;;;;;;2.78;0.30;;;;;;;;;;4105279;28;20061;-56
2023/02/07 11:10:43;;;;;;;3.63;0.40;;;;;;;;;;4095639;28;20058;-52
2023/02/07 11:12:53;;;;;;;1.15;0.50;;;;;;;;;;4112569;28;20116;-56
2023/02/07 11:15:06;;;;;;;1.55;0.50;;;;;;;;;;4116461;28;20513;-53
2023/02/07 11:17:19;;;;;;;1.20;0.50;;;;;;;;;;4099028;28;20565;-54
2023/02/07 11:19:28;;;;;;;0.52;0.40;;;;;;;;;;4094220;28;20046;-53
2023/02/07 11:21:32;;;;;;;0.60;0.40;;;;;;;;;;4101447;28;20062;-52
2023/02/07 11:23:33;;;;;;;1.35;0.60;;;;;;;;;;4116090;28;20064;-51
2023/02/07 11:25:37;;;;;;;0.75;0.55;;;;;;;;;;4122664;28;20058;-52
2023/02/07 11:27:40;;;;;;;1.75;0.85;;;;;;;;;;4099446;28;20066;-50
2023/02/07 11:29:53;;;;;;;2.17;0.40;;;;;;;;;;4089881;28;20421;-50
2023/02/07 11:31:58;;;;;;;2.50;0.60;;;;;;;;;;4089844;28;20167;-47
2023/02/07 11:34:27;;;;;;;0.85;0.63;;;;;;;;;;4114940;28;20124;-49
2023/02/07 11:36:31;;;;;;;0.75;0.50;;;;;;;;;;4120145;28;21751;-50
2023/02/07 11:38:51;;;;;;;0.80;0.50;;;;;;;;;;4090825;28;20506;-49
2023/02/07 11:40:57;;;;;;;0.98;0.40;;;;;;;;;;4112779;28;20057;-49
2023/02/07 11:43:09;;;;;;;0.80;0.50;;;;;;;;;;4112772;28;20579;-49
2023/02/07 11:45:17;;;;;;;0.55;0.40;;;;;;;;;;4095038;28;20097;-47
2023/02/07 11:47:29;;;;;;;1.02;0.50;;;;;;;;;;4084135;28;20544;-49
2023/02/07 11:49:36;;;;;;;3.83;0.63;;;;;;;;;;4103070;28;20054;-53
2023/02/07 11:51:38;;;;;;;2.10;0.65;;;;;;;;;;4102263;28;20053;-49
2023/02/07 11:53:55;;;;;;;1.42;0.38;;;;;;;;;;4107808;28;20115;-48
2023/02/07 11:55:57;;;;;;;0.63;0.38;;;;;;;;;;4114969;28;20062;-51
2023/02/07 11:58:05;;;;;;;1.75;0.52;;;;;;;;;;4099592;28;20061;-47
2023/02/07 12:00:07;;;;;;;2.55;0.73;;;;;;;;;;4089768;28;21266;-54
2023/02/07 12:02:19;;;;;;;1.60;0.60;;;;;;;;;;4094680;28;20517;-51
2023/02/07 12:04:29;;;;;;;2.95;0.40;;;;;;;;;;4092338;28;20159;-50
2023/02/07 12:06:32;;;;;;;;;;;;;;;;;;4086113;28;20491;-49
2023/02/07 12:08:34;;;;;;;3.95;0.43;;;;;;;;;;4104265;28;19937;-53
2023/02/07 12:10:38;;;;;;;3.10;0.52;;;;;;;;;;4105103;28;20144;-54
2023/02/07 12:12:45;;;;;;;0.98;0.45;;;;;;;;;;4102578;28;20072;-53
2023/02/07 12:14:51;;;;;;;1.63;0.52;;;;;;;;;;4100285;28;20058;-56
2023/02/07 12:16:55;;;;;;;4.75;0.57;;;;;;;;;;4106988;28;20062;-51
2023/02/07 12:19:19;;;;;;;2.15;0.80;;;;;;;;;;4096451;28;22126;-49
2023/02/07 12:21:27;;;;;;;1.15;0.60;;;;;;;;;;4093112;28;20165;-56
2023/02/07 12:23:31;;;;;;;0.82;0.50;;;;;;;;;;4102885;28;20766;-55
2023/02/07 12:25:38;;;;;;;2.10;0.60;;;;;;;;;;4088378;28;20062;-54
2023/02/07 12:27:43;;;;;;;0.90;0.50;;;;;;;;;;4106117;28;20053;-56
2023/02/07 12:30:16;;;;;;;2.13;0.82;;;;;;;;;;4104358;28;20060;-51